Time;durP1;ratioP1;P1;durP2;ratioP2;P2;SDS_P1;SDS_P2;PMS_P1;PMS_P2;Temp;Humidity;BMP_temperature;BMP_pressure;BME280_temperature;BME280_humidity;BME280_pressure;Samples;Min_cycle;Max_cycle;Signal;HPM_P1;HPM_P2
2022/03/05 00:00:20;;;;;;;22.42;11.88;;;0.30;56.70;;;;;;4947450;28;20040;-68
2022/03/05 00:02:46;;;;;;;21.08;12.00;;;0.30;56.80;;;;;;4929981;28;20134;-65
2022/03/05 00:05:13;;;;;;;23.92;12.32;;;0.20;56.80;;;;;;4927107;28;20126;-67
2022/03/05 00:07:39;;;;;;;23.13;12.73;;;0.20;56.90;;;;;;4930892;28;20040;-67
2022/03/05 00:10:05;;;;;;;23.33;11.88;;;0.20;57.20;;;;;;4921091;29;20288;-68
2022/03/05 00:12:30;;;;;;;20.50;11.63;;;0.20;57.60;;;;;;4926570;28;20095;-68
2022/03/05 00:14:56;;;;;;;22.38;11.95;;;0.10;58.40;;;;;;4929536;28;20444;-67
2022/03/05 00:17:22;;;;;;;21.23;11.10;;;0.10;57.50;;;;;;4928979;28;20115;-68
2022/03/05 00:19:48;;;;;;;20.88;11.75;;;0.10;57.90;;;;;;4927591;28;20063;-66
2022/03/05 00:22:13;;;;;;;20.48;10.85;;;0.10;58.00;;;;;;4923640;29;20117;-67
2022/03/05 00:24:39;;;;;;;22.48;11.45;;;0.10;57.80;;;;;;4922952;28;20071;-66
2022/03/05 00:27:04;;;;;;;20.10;10.35;;;0.00;57.60;;;;;;4926116;28;20044;-67
2022/03/05 00:29:30;;;;;;;22.48;11.25;;;0.10;57.60;;;;;;4940726;28;20039;-67
2022/03/05 00:31:56;;;;;;;19.58;10.40;;;0.10;57.60;;;;;;4922732;28;20384;-67
2022/03/05 00:34:22;;;;;;;22.20;11.02;;;0.10;57.60;;;;;;4921676;28;20034;-67
2022/03/05 00:36:48;;;;;;;18.73;10.30;;;0.10;57.60;;;;;;4923509;28;20031;-67
2022/03/05 00:39:14;;;;;;;20.23;10.77;;;0.10;57.70;;;;;;4922640;28;20035;-67
2022/03/05 00:41:39;;;;;;;20.77;11.02;;;0.10;57.80;;;;;;4920184;29;20504;-67
2022/03/05 00:44:05;;;;;;;19.15;10.68;;;0.10;58.10;;;;;;4924233;28;20036;-66
2022/03/05 00:46:30;;;;;;;21.40;11.02;;;0.10;58.20;;;;;;4906229;28;20043;-68
2022/03/05 00:48:56;;;;;;;21.65;10.95;;;0.10;58.40;;;;;;4902862;29;20444;-67
2022/03/05 00:51:22;;;;;;;18.75;10.32;;;0.10;58.30;;;;;;4902788;28;20084;-68
2022/03/05 00:53:48;;;;;;;19.52;11.07;;;0.10;58.40;;;;;;4903531;29;20032;-68
2022/03/05 00:56:14;;;;;;;19.98;10.60;;;0.10;58.30;;;;;;4916201;29;20658;-66
2022/03/05 00:58:39;;;;;;;21.38;11.13;;;0.00;58.30;;;;;;4922006;28;20047;-67
2022/03/05 01:01:05;;;;;;;23.48;10.77;;;0.00;58.50;;;;;;4922905;28;20167;-68
2022/03/05 01:03:31;;;;;;;22.17;10.45;;;0.00;58.50;;;;;;4921571;28;20062;-66
2022/03/05 01:05:57;;;;;;;17.67;9.43;;;-0.10;58.50;;;;;;4922487;29;20035;-67
2022/03/05 01:08:23;;;;;;;22.55;10.98;;;-0.10;58.40;;;;;;4923382;28;20071;-67
2022/03/05 01:10:48;;;;;;;23.15;10.65;;;-0.10;58.60;;;;;;4904761;28;20452;-67
2022/03/05 01:13:14;;;;;;;22.20;10.23;;;-0.10;58.80;;;;;;4905878;29;20036;-67
2022/03/05 01:15:40;;;;;;;22.65;10.45;;;-0.10;58.60;;;;;;4905475;28;20127;-68
2022/03/05 01:18:05;;;;;;;20.55;10.50;;;-0.10;58.70;;;;;;4904998;28;20036;-66
2022/03/05 01:20:31;;;;;;;23.10;11.15;;;-0.10;58.60;;;;;;4904153;28;20032;-67
2022/03/05 01:22:57;;;;;;;25.35;11.23;;;-0.10;58.60;;;;;;4901990;29;20040;-67
2022/03/05 01:25:22;;;;;;;21.40;10.45;;;-0.10;58.60;;;;;;4906342;29;20080;-67
2022/03/05 01:27:49;;;;;;;26.48;11.93;;;-0.20;58.70;;;;;;4898729;29;20072;-66
2022/03/05 01:30:15;;;;;;;21.65;11.27;;;-0.20;58.80;;;;;;4901156;28;20048;-67
2022/03/05 01:32:40;;;;;;;26.23;11.50;;;-0.20;59.00;;;;;;4904108;29;20039;-68
2022/03/05 01:35:07;;;;;;;22.38;10.82;;;-0.20;59.00;;;;;;4905243;28;20043;-68
2022/03/05 01:37:33;;;;;;;23.92;10.93;;;-0.20;59.00;;;;;;4907147;29;20067;-67
2022/03/05 01:39:58;;;;;;;23.42;10.75;;;-0.20;58.80;;;;;;4905198;28;20543;-68
2022/03/05 01:42:24;;;;;;;22.45;11.05;;;-0.20;58.90;;;;;;4906004;28;20479;-66
2022/03/05 01:44:50;;;;;;;19.58;10.35;;;-0.20;58.80;;;;;;4903768;29;20028;-67
2022/03/05 01:47:16;;;;;;;21.65;10.98;;;-0.20;58.70;;;;;;4910264;28;20036;-67
2022/03/05 01:49:42;;;;;;;21.45;10.68;;;-0.20;58.80;;;;;;4924720;28;20614;-68
2022/03/05 01:52:09;;;;;;;19.80;10.48;;;-0.20;58.80;;;;;;4923368;28;20043;-67
2022/03/05 01:54:35;;;;;;;21.83;9.95;;;-0.20;58.70;;;;;;4925435;28;20043;-67
2022/03/05 01:57:01;;;;;;;19.20;9.95;;;-0.20;58.60;;;;;;4926329;28;20050;-68
2022/03/05 01:59:27;;;;;;;19.00;9.55;;;-0.20;58.50;;;;;;4922293;28;20024;-67
2022/03/05 02:01:53;;;;;;;20.73;10.25;;;-0.20;58.50;;;;;;4923021;29;20693;-67
2022/03/05 02:04:19;;;;;;;19.50;9.55;;;-0.20;58.40;;;;;;4923098;28;20028;-68
2022/03/05 02:06:44;;;;;;;19.30;9.82;;;-0.20;58.50;;;;;;4924288;29;20047;-67
2022/03/05 02:09:10;;;;;;;22.23;10.20;;;-0.20;58.40;;;;;;4927364;28;20047;-68
2022/03/05 02:11:36;;;;;;;17.70;8.95;;;-0.20;58.40;;;;;;4924510;29;20039;-67
2022/03/05 02:14:02;;;;;;;19.92;9.48;;;-0.20;58.50;;;;;;4925593;29;20505;-67
2022/03/05 02:16:29;;;;;;;19.33;9.48;;;-0.20;58.60;;;;;;4925574;28;20040;-67
2022/03/05 02:18:58;;;;;;;15.70;9.13;;;-0.20;58.60;;;;;;4925674;28;20043;-67
2022/03/05 02:21:25;;;;;;;19.33;9.25;;;-0.20;58.70;;;;;;4925878;28;20499;-67
2022/03/05 02:23:51;;;;;;;20.17;9.75;;;-0.20;58.80;;;;;;4926511;29;20422;-67
2022/03/05 02:26:17;;;;;;;17.17;8.43;;;-0.20;58.80;;;;;;4943904;28;20457;-67
2022/03/05 02:28:42;;;;;;;20.20;9.35;;;-0.20;58.70;;;;;;4926532;28;20148;-67
2022/03/05 02:31:08;;;;;;;18.38;9.32;;;-0.20;58.80;;;;;;4927812;28;20107;-67
2022/03/05 02:33:34;;;;;;;22.70;9.85;;;-0.10;58.90;;;;;;4925535;28;20358;-67
2022/03/05 02:36:00;;;;;;;20.48;10.02;;;-0.10;58.90;;;;;;4927795;28;20050;-67
2022/03/05 02:38:26;;;;;;;17.85;9.90;;;-0.20;59.00;;;;;;4927230;28;20438;-67
2022/03/05 02:40:52;;;;;;;17.52;9.10;;;-0.20;59.00;;;;;;4926902;28;20035;-67
2022/03/05 02:43:21;;;;;;;19.33;10.05;;;-0.20;59.00;;;;;;4925113;28;20032;-67
2022/03/05 02:45:47;;;;;;;21.48;10.75;;;-0.20;59.10;;;;;;4926328;28;20036;-67
2022/03/05 02:48:15;;;;;;;19.23;10.57;;;-0.20;59.20;;;;;;4924410;28;20454;-66
2022/03/05 02:50:42;;;;;;;20.42;10.05;;;-0.20;59.30;;;;;;4926796;28;20032;-68
2022/03/05 02:53:08;;;;;;;22.52;10.45;;;-0.20;59.40;;;;;;4926970;28;20059;-67
2022/03/05 02:55:34;;;;;;;19.85;10.13;;;-0.20;59.40;;;;;;4924090;29;20131;-67
2022/03/05 02:58:01;;;;;;;17.05;9.52;;;-0.30;59.50;;;;;;4926488;28;20122;-67
2022/03/05 03:00:26;;;;;;;18.98;9.70;;;-0.30;59.60;;;;;;4925442;28;20032;-67
2022/03/05 03:02:52;;;;;;;19.77;9.88;;;-0.30;59.60;;;;;;4925876;28;20047;-68
2022/03/05 03:05:18;;;;;;;18.70;9.88;;;-0.30;59.70;;;;;;4922992;28;20035;-67
2022/03/05 03:07:44;;;;;;;22.25;9.88;;;-0.30;59.80;;;;;;4925501;28;20715;-67
2022/03/05 03:10:12;;;;;;;18.80;9.85;;;-0.30;60.00;;;;;;4926843;28;20506;-67
2022/03/05 03:12:38;;;;;;;19.92;9.85;;;-0.30;60.10;;;;;;4917911;28;20040;-67
2022/03/05 03:15:05;;;;;;;17.63;9.80;;;-0.30;60.20;;;;;;4928174;28;20028;-68
2022/03/05 03:17:43;;;;;;;21.48;10.73;;;-0.30;60.20;;;;;;4925787;28;20312;-67
2022/03/05 03:20:10;;;;;;;21.25;10.00;;;-0.40;60.60;;;;;;4926730;28;20035;-67
2022/03/05 03:22:36;;;;;;;20.60;9.70;;;-0.30;60.40;;;;;;4917244;28;20856;-67
2022/03/05 03:25:02;;;;;;;20.45;10.20;;;-0.40;60.40;;;;;;4924276;29;20135;-67
2022/03/05 03:27:28;;;;;;;19.40;10.00;;;-0.40;60.60;;;;;;4925017;28;20135;-67
2022/03/05 03:29:54;;;;;;;17.20;9.35;;;-0.40;60.60;;;;;;4927254;28;20127;-67
2022/03/05 03:32:19;;;;;;;22.63;10.35;;;-0.40;60.60;;;;;;4926259;28;20339;-67
2022/03/05 03:34:45;;;;;;;18.65;10.30;;;-0.40;60.60;;;;;;4921715;28;20142;-67
2022/03/05 03:37:10;;;;;;;19.42;9.52;;;-0.40;60.60;;;;;;4926134;28;20513;-67
2022/03/05 03:39:36;;;;;;;18.00;9.85;;;-0.40;61.60;;;;;;4923278;28;20036;-67
2022/03/05 03:42:02;;;;;;;18.48;9.73;;;-0.40;60.60;;;;;;4924849;28;20043;-67
2022/03/05 03:44:27;;;;;;;18.13;9.35;;;-0.40;60.60;;;;;;4924622;28;20059;-67
2022/03/05 03:46:53;;;;;;;18.15;9.52;;;-0.40;60.60;;;;;;4924067;29;20043;-67
2022/03/05 03:49:19;;;;;;;18.92;9.73;;;-0.40;60.60;;;;;;4924876;28;20032;-67
2022/03/05 03:51:45;;;;;;;19.10;9.63;;;-0.40;60.60;;;;;;4925698;28;20020;-67
2022/03/05 03:54:11;;;;;;;17.15;9.38;;;-0.40;60.50;;;;;;4926237;28;20047;-67
2022/03/05 03:56:36;;;;;;;20.15;9.98;;;-0.40;60.60;;;;;;4925580;28;20680;-66
2022/03/05 03:59:02;;;;;;;18.73;9.77;;;-0.40;60.60;;;;;;4927282;28;20191;-67
2022/03/05 04:01:28;;;;;;;18.30;9.43;;;-0.50;60.60;;;;;;4923777;28;20032;-67
2022/03/05 04:03:54;;;;;;;22.85;10.50;;;-0.50;60.60;;;;;;4927273;28;20050;-67
2022/03/05 04:06:19;;;;;;;18.42;9.30;;;-0.50;60.60;;;;;;4924636;28;20044;-67
2022/03/05 04:08:45;;;;;;;18.85;9.60;;;-0.60;60.60;;;;;;4924653;28;20044;-67
2022/03/05 04:11:13;;;;;;;18.02;10.00;;;-0.60;60.50;;;;;;4921658;29;20044;-67
2022/03/05 04:13:40;;;;;;;19.77;9.82;;;-0.70;60.70;;;;;;4923809;28;20638;-67
2022/03/05 04:16:06;;;;;;;22.15;9.68;;;-0.70;60.60;;;;;;4925280;28;20130;-67
2022/03/05 04:18:32;;;;;;;19.15;9.73;;;-0.80;60.50;;;;;;4925013;28;20320;-66
2022/03/05 04:20:58;;;;;;;23.08;10.48;;;-0.80;60.60;;;;;;4924997;28;20031;-67
2022/03/05 04:23:23;;;;;;;19.50;9.80;;;-0.80;60.60;;;;;;4921457;29;20032;-67
2022/03/05 04:25:49;;;;;;;18.33;9.30;;;-0.90;60.90;;;;;;4924099;28;20040;-67
2022/03/05 04:28:15;;;;;;;21.80;10.18;;;-1.00;60.90;;;;;;4925223;28;20044;-67
2022/03/05 04:30:42;;;;;;;21.00;9.35;;;-1.00;61.30;;;;;;4920947;28;20047;-67
2022/03/05 04:33:07;;;;;;;20.15;9.85;;;-1.00;61.40;;;;;;4924288;28;20034;-67
2022/03/05 04:35:33;;;;;;;17.90;9.80;;;-1.10;61.30;;;;;;4925483;29;20040;-67
2022/03/05 04:37:58;;;;;;;18.15;9.73;;;-1.00;61.60;;;;;;4924155;28;20047;-67
2022/03/05 04:40:24;;;;;;;20.27;9.27;;;-1.00;61.80;;;;;;4925789;28;20039;-69
2022/03/05 04:42:50;;;;;;;17.48;9.70;;;-1.10;61.60;;;;;;4925808;28;20067;-67
2022/03/05 04:45:16;;;;;;;20.92;10.00;;;-1.00;61.60;;;;;;4922668;29;20094;-67
2022/03/05 04:47:42;;;;;;;18.20;9.93;;;-1.10;61.40;;;;;;4923182;28;20039;-67
2022/03/05 04:50:09;;;;;;;17.90;10.07;;;-1.00;61.50;;;;;;4925578;28;20271;-67
2022/03/05 04:52:35;;;;;;;18.38;9.55;;;-1.00;61.40;;;;;;4922512;28;20032;-67
2022/03/05 04:55:02;;;;;;;17.35;8.88;;;-1.00;61.20;;;;;;4925458;28;20036;-67
2022/03/05 04:57:28;;;;;;;20.38;10.00;;;-1.00;61.10;;;;;;4924397;28;20039;-67
2022/03/05 04:59:53;;;;;;;17.83;10.18;;;-1.10;60.90;;;;;;4924050;28;20501;-67
2022/03/05 05:02:19;;;;;;;17.65;10.00;;;-1.10;60.90;;;;;;4923439;28;20090;-67
2022/03/05 05:04:44;;;;;;;19.45;9.90;;;-1.10;61.00;;;;;;4923689;28;20044;-67
2022/03/05 05:07:10;;;;;;;19.67;10.05;;;-1.20;61.10;;;;;;4922799;28;20062;-67
2022/03/05 05:09:36;;;;;;;19.85;9.68;;;-1.30;61.10;;;;;;4919128;28;20558;-67
2022/03/05 05:12:02;;;;;;;20.42;9.50;;;-1.40;61.40;;;;;;4922132;29;20083;-67
2022/03/05 05:14:28;;;;;;;20.88;10.25;;;-1.50;61.60;;;;;;4924144;28;20371;-66
2022/03/05 05:16:54;;;;;;;20.50;9.70;;;-1.50;61.60;;;;;;4923951;28;20455;-67
2022/03/05 05:19:25;;;;;;;18.92;9.88;;;-1.60;61.80;;;;;;4920841;29;20036;-67
2022/03/05 05:21:59;;;;;;;20.02;9.95;;;-1.60;62.00;;;;;;4923228;28;20750;-67
2022/03/05 05:24:27;;;;;;;20.42;9.20;;;-1.70;62.10;;;;;;4925727;28;20107;-67
2022/03/05 05:26:53;;;;;;;21.55;10.02;;;-1.80;62.00;;;;;;4921627;28;20403;-67
2022/03/05 05:29:20;;;;;;;20.50;10.00;;;-1.80;62.10;;;;;;4925066;28;20043;-67
2022/03/05 05:31:46;;;;;;;21.33;10.70;;;-1.80;62.10;;;;;;4919526;28;22082;-68
2022/03/05 05:34:11;;;;;;;30.10;12.63;;;-1.90;62.10;;;;;;4923298;28;20460;-67
2022/03/05 05:36:38;;;;;;;22.23;11.50;;;-1.90;62.30;;;;;;4922939;28;20504;-67
2022/03/05 05:39:05;;;;;;;26.35;12.00;;;-1.90;62.50;;;;;;4924443;28;20152;-67
2022/03/05 05:41:31;;;;;;;31.17;13.02;;;-1.90;62.60;;;;;;4923802;28;20414;-67
2022/03/05 05:43:57;;;;;;;30.05;11.60;;;-1.90;62.50;;;;;;4925170;28;20028;-67
2022/03/05 05:46:23;;;;;;;22.85;11.13;;;-1.90;62.50;;;;;;4924812;28;20047;-67
2022/03/05 05:48:48;;;;;;;24.17;10.55;;;-1.90;62.40;;;;;;4924308;28;20602;-68
2022/03/05 05:51:14;;;;;;;20.35;10.90;;;-1.90;62.60;;;;;;4930460;28;20067;-67
2022/03/05 05:53:40;;;;;;;20.45;10.38;;;-1.90;62.60;;;;;;4927742;28;20553;-67
2022/03/05 05:56:05;;;;;;;21.60;10.38;;;-1.90;62.60;;;;;;4928928;28;20036;-67
2022/03/05 05:58:31;;;;;;;22.95;11.07;;;-2.00;62.50;;;;;;4925190;28;20079;-65
2022/03/05 06:00:56;;;;;;;25.40;10.60;;;-2.00;62.60;;;;;;4930066;28;20515;-67
2022/03/05 06:03:22;;;;;;;23.35;11.02;;;-2.00;62.90;;;;;;4931596;28;20107;-67
2022/03/05 06:05:48;;;;;;;24.38;10.90;;;-2.00;63.20;;;;;;4930918;28;20094;-68
2022/03/05 06:08:13;;;;;;;21.17;10.73;;;-2.10;63.10;;;;;;4929201;28;20570;-66
2022/03/05 06:10:39;;;;;;;22.30;10.93;;;-2.10;63.00;;;;;;4927779;28;20042;-67
2022/03/05 06:13:05;;;;;;;23.58;11.02;;;-2.20;63.00;;;;;;4930520;28;20111;-67
2022/03/05 06:15:30;;;;;;;20.85;11.15;;;-2.20;63.00;;;;;;4931426;28;20063;-67
2022/03/05 06:17:57;;;;;;;17.65;9.57;;;-2.30;62.80;;;;;;4931523;28;20063;-67
2022/03/05 06:20:23;;;;;;;19.95;10.25;;;-2.20;63.90;;;;;;4932047;28;20035;-67
2022/03/05 06:22:48;;;;;;;20.88;10.52;;;-2.20;63.20;;;;;;4928419;28;20043;-67
2022/03/05 06:25:14;;;;;;;20.02;10.05;;;-2.20;63.20;;;;;;4929100;28;20047;-67
2022/03/05 06:27:40;;;;;;;20.08;10.82;;;-2.20;63.20;;;;;;4930756;28;20530;-67
2022/03/05 06:30:06;;;;;;;18.83;10.18;;;-2.20;63.30;;;;;;4925219;29;20036;-66
2022/03/05 06:32:32;;;;;;;21.98;10.77;;;-2.20;63.40;;;;;;4931547;28;20105;-67
2022/03/05 06:34:57;;;;;;;27.63;10.75;;;-2.10;63.60;;;;;;4932100;28;20044;-67
2022/03/05 06:37:23;;;;;;;22.73;11.52;;;-2.10;63.90;;;;;;4932431;28;20443;-66
2022/03/05 06:39:49;;;;;;;22.02;11.25;;;-2.00;64.20;;;;;;4932074;28;20055;-67
2022/03/05 06:42:15;;;;;;;21.35;11.60;;;-2.00;64.40;;;;;;4930518;28;20066;-67
2022/03/05 06:44:44;;;;;;;24.48;12.05;;;-1.90;64.40;;;;;;4930699;28;20042;-66
2022/03/05 06:47:09;;;;;;;23.02;11.95;;;-1.80;64.90;;;;;;4930255;28;20102;-67
2022/03/05 06:49:35;;;;;;;22.02;11.10;;;-1.80;64.90;;;;;;4930723;28;20036;-66
2022/03/05 06:52:00;;;;;;;27.83;12.25;;;-1.70;65.10;;;;;;4930802;28;20031;-68
2022/03/05 06:54:26;;;;;;;24.52;11.77;;;-1.70;65.70;;;;;;4930375;28;20035;-67
2022/03/05 06:56:52;;;;;;;22.80;11.77;;;-1.60;65.50;;;;;;4930392;28;20039;-67
2022/03/05 06:59:18;;;;;;;23.52;12.10;;;-1.60;65.50;;;;;;4929838;28;20032;-67
2022/03/05 07:01:44;;;;;;;24.48;12.23;;;-1.50;65.50;;;;;;4923184;29;20503;-67
2022/03/05 07:04:09;;;;;;;27.75;12.95;;;-1.40;65.60;;;;;;4930035;28;20036;-67
2022/03/05 07:06:37;;;;;;;25.45;12.63;;;-1.40;65.60;;;;;;4924092;28;20972;-66
2022/03/05 07:09:03;;;;;;;28.13;13.35;;;-1.30;66.30;;;;;;4922987;28;20048;-67
2022/03/05 07:11:29;;;;;;;24.95;11.90;;;-1.30;66.30;;;;;;4922212;29;20099;-66
2022/03/05 07:13:55;;;;;;;24.48;12.68;;;-1.20;66.10;;;;;;4924016;28;20067;-66
2022/03/05 07:16:21;;;;;;;25.83;12.95;;;-1.20;66.00;;;;;;4926425;28;20048;-67
2022/03/05 07:18:46;;;;;;;26.45;13.05;;;-1.10;66.50;;;;;;4924636;28;20036;-67
2022/03/05 07:21:12;;;;;;;25.60;13.20;;;-1.10;66.30;;;;;;4927177;28;20118;-67
2022/03/05 07:23:38;;;;;;;24.95;13.48;;;-1.00;66.80;;;;;;4928244;28;20040;-67
2022/03/05 07:26:03;;;;;;;25.77;13.32;;;-1.00;66.50;;;;;;4925371;28;20035;-67
2022/03/05 07:28:29;;;;;;;30.40;13.68;;;-0.90;66.50;;;;;;4928960;28;20042;-67
2022/03/05 07:30:55;;;;;;;27.38;14.82;;;-0.90;67.00;;;;;;4929475;28;20582;-66
2022/03/05 07:33:22;;;;;;;29.20;14.57;;;-0.80;66.60;;;;;;4928465;28;20525;-67
2022/03/05 07:35:47;;;;;;;26.67;13.82;;;-0.70;66.80;;;;;;4931133;28;20143;-67
2022/03/05 07:38:13;;;;;;;26.83;13.70;;;-0.70;66.60;;;;;;4930781;28;20206;-67
2022/03/05 07:40:39;;;;;;;24.73;13.32;;;-0.60;66.60;;;;;;4929224;28;20122;-65
2022/03/05 07:43:05;;;;;;;26.73;13.57;;;-0.60;66.50;;;;;;4929927;28;20403;-67
2022/03/05 07:45:30;;;;;;;31.35;14.35;;;-0.50;66.60;;;;;;4928795;28;20442;-67
2022/03/05 07:47:56;;;;;;;28.95;14.18;;;-0.40;66.70;;;;;;4929764;28;20043;-67
2022/03/05 07:50:22;;;;;;;29.85;14.63;;;-0.40;66.60;;;;;;4929743;28;20036;-67
2022/03/05 07:52:47;;;;;;;24.80;13.20;;;-0.30;66.70;;;;;;4930200;28;20039;-67
2022/03/05 07:55:13;;;;;;;26.55;13.75;;;-0.20;66.60;;;;;;4929725;28;20051;-67
2022/03/05 07:57:39;;;;;;;30.20;14.57;;;-0.10;66.60;;;;;;4929428;28;20518;-67
2022/03/05 08:00:06;;;;;;;27.23;14.30;;;-0.10;66.50;;;;;;4910848;29;20108;-67
2022/03/05 08:02:32;;;;;;;30.50;14.13;;;0.00;66.50;;;;;;4909357;28;20040;-66
2022/03/05 08:04:58;;;;;;;28.00;13.75;;;0.10;66.30;;;;;;4911089;28;20494;-67
2022/03/05 08:07:24;;;;;;;27.35;13.52;;;0.10;66.30;;;;;;4915738;28;20088;-65
2022/03/05 08:09:50;;;;;;;28.08;14.38;;;0.20;66.10;;;;;;4920301;28;20479;-65
2022/03/05 08:12:16;;;;;;;28.17;13.70;;;0.30;66.00;;;;;;4918980;29;20043;-66
2022/03/05 08:14:44;;;;;;;25.45;13.15;;;0.40;65.80;;;;;;4914960;28;20110;-66
2022/03/05 08:17:11;;;;;;;26.90;14.57;;;0.40;65.70;;;;;;4917255;29;20035;-65
2022/03/05 08:19:36;;;;;;;26.70;13.43;;;0.60;65.70;;;;;;4916637;28;20066;-66
2022/03/05 08:22:02;;;;;;;27.17;14.80;;;0.60;65.40;;;;;;4914341;28;20899;-65
2022/03/05 08:24:28;;;;;;;28.90;14.00;;;0.80;65.50;;;;;;4918134;28;20054;-66
2022/03/05 08:26:53;;;;;;;31.40;15.05;;;0.80;65.40;;;;;;4918359;28;20040;-66
2022/03/05 08:29:19;;;;;;;30.30;14.48;;;0.90;65.30;;;;;;4913600;28;20047;-66
2022/03/05 08:31:45;;;;;;;31.00;15.07;;;1.00;64.90;;;;;;4914998;28;20078;-65
2022/03/05 08:34:10;;;;;;;25.98;14.20;;;1.10;64.90;;;;;;4917094;28;20070;-66
2022/03/05 08:36:36;;;;;;;26.30;13.70;;;1.20;64.70;;;;;;4913695;28;20063;-66
2022/03/05 08:39:02;;;;;;;30.27;14.10;;;1.20;64.60;;;;;;4914342;28;20050;-66
2022/03/05 08:41:28;;;;;;;27.35;13.38;;;1.30;64.50;;;;;;4917110;28;20035;-65
2022/03/05 08:43:53;;;;;;;29.27;14.75;;;1.40;64.20;;;;;;4916031;28;20082;-67
2022/03/05 08:46:19;;;;;;;30.65;15.00;;;1.50;64.20;;;;;;4916727;28;20043;-65
2022/03/05 08:48:45;;;;;;;26.52;13.90;;;1.50;64.10;;;;;;4917156;28;20098;-67
2022/03/05 08:51:11;;;;;;;28.20;14.70;;;1.60;64.00;;;;;;4924588;28;20067;-67
2022/03/05 08:53:36;;;;;;;28.30;14.65;;;1.70;63.70;;;;;;4924264;28;20503;-67
2022/03/05 08:56:02;;;;;;;26.05;13.52;;;1.70;63.50;;;;;;4927244;23;20301;-67
2022/03/05 08:58:28;;;;;;;29.00;14.15;;;1.80;63.40;;;;;;4933698;28;20071;-67
2022/03/05 09:00:54;;;;;;;25.27;13.55;;;1.90;63.30;;;;;;4931617;28;20050;-67
2022/03/05 09:03:20;;;;;;;25.88;14.07;;;2.00;63.50;;;;;;4935837;28;20043;-67
2022/03/05 09:05:46;;;;;;;27.38;14.30;;;2.00;63.30;;;;;;4934111;28;20105;-67
2022/03/05 09:08:15;;;;;;;28.88;13.45;;;2.20;63.20;;;;;;4929715;28;20482;-65
2022/03/05 09:10:40;;;;;;;29.33;14.38;;;2.20;62.80;;;;;;4929494;28;20036;-65
2022/03/05 09:13:06;;;;;;;24.67;13.25;;;2.30;62.80;;;;;;4929994;28;20058;-65
2022/03/05 09:15:32;;;;;;;25.58;13.38;;;2.40;62.70;;;;;;4928222;28;20030;-67
2022/03/05 09:17:57;;;;;;;25.67;12.80;;;2.50;62.60;;;;;;4924735;28;20059;-66
2022/03/05 09:20:23;;;;;;;23.85;11.73;;;2.60;62.30;;;;;;4914663;28;20051;-66
2022/03/05 09:22:49;;;;;;;22.27;12.93;;;2.70;62.10;;;;;;4910382;28;20059;-66
2022/03/05 09:25:15;;;;;;;21.63;12.05;;;2.70;61.70;;;;;;4918508;28;20594;-65
2022/03/05 09:27:42;;;;;;;26.67;12.68;;;2.90;61.70;;;;;;4910116;28;20043;-66
2022/03/05 09:30:09;;;;;;;23.63;12.05;;;2.90;61.30;;;;;;4910865;28;20544;-66
2022/03/05 09:32:34;;;;;;;24.05;12.02;;;3.00;61.10;;;;;;4910782;28;20048;-65
2022/03/05 09:35:00;;;;;;;22.83;12.45;;;3.10;60.80;;;;;;4912823;28;20028;-65
2022/03/05 09:37:28;;;;;;;21.90;11.57;;;3.10;60.60;;;;;;4918891;29;20169;-64
2022/03/05 09:39:54;;;;;;;21.85;11.77;;;3.20;60.60;;;;;;4927182;28;20090;-67
2022/03/05 09:42:20;;;;;;;21.25;11.20;;;3.30;60.20;;;;;;4919663;29;20587;-67
2022/03/05 09:44:45;;;;;;;19.73;11.50;;;3.30;59.80;;;;;;4911492;28;20143;-67
2022/03/05 09:47:11;;;;;;;21.63;12.13;;;3.40;59.80;;;;;;4916639;28;20099;-67
2022/03/05 09:49:38;;;;;;;22.35;11.88;;;3.50;59.70;;;;;;4921499;29;20031;-68
2022/03/05 09:52:05;;;;;;;20.83;10.90;;;3.50;59.50;;;;;;4920890;28;20057;-67
2022/03/05 09:54:31;;;;;;;22.25;11.13;;;3.60;60.10;;;;;;4923262;28;20032;-67
2022/03/05 09:56:57;;;;;;;17.63;10.32;;;3.70;59.40;;;;;;4923336;29;20103;-67
2022/03/05 09:59:23;;;;;;;20.55;11.00;;;3.80;59.30;;;;;;4929705;28;20036;-67
2022/03/05 10:01:50;;;;;;;18.83;10.57;;;3.80;59.00;;;;;;4923826;28;20508;-67
2022/03/05 10:04:20;;;;;;;19.98;11.23;;;3.90;58.80;;;;;;4924388;28;20052;-68
2022/03/05 10:07:04;;;;;;;18.92;10.18;;;4.00;58.60;;;;;;4922843;28;20539;-67
2022/03/05 10:09:30;;;;;;;20.55;10.20;;;4.00;58.50;;;;;;4923255;29;20150;-67
2022/03/05 10:11:56;;;;;;;16.20;9.48;;;4.10;58.30;;;;;;4923955;28;20126;-67
2022/03/05 10:14:21;;;;;;;16.95;9.63;;;4.20;58.10;;;;;;4924208;29;20048;-67
2022/03/05 10:16:47;;;;;;;19.00;9.60;;;4.20;57.90;;;;;;4927014;28;20095;-67
2022/03/05 10:19:21;;;;;;;20.13;10.82;;;4.30;57.60;;;;;;4922982;28;20032;-67
2022/03/05 10:21:56;;;;;;;15.35;7.95;;;4.40;57.40;;;;;;4922734;28;20115;-67
2022/03/05 10:24:33;;;;;;;14.05;8.43;;;4.50;57.50;;;;;;4923553;28;20048;-67
2022/03/05 10:26:59;;;;;;;16.33;9.40;;;4.50;57.10;;;;;;4923340;28;20046;-67
2022/03/05 10:29:34;;;;;;;17.98;9.98;;;4.60;57.20;;;;;;4923664;29;20065;-65
2022/03/05 10:32:08;;;;;;;22.60;11.18;;;4.70;56.90;;;;;;4924033;28;20039;-67
2022/03/05 10:34:50;;;;;;;19.23;10.52;;;4.80;56.50;;;;;;4921911;28;20039;-67
2022/03/05 10:37:17;;;;;;;17.70;10.20;;;4.90;56.50;;;;;;4926603;29;20516;-67
2022/03/05 10:39:43;;;;;;;17.60;9.63;;;4.90;56.50;;;;;;4934990;28;20039;-67
2022/03/05 10:42:21;;;;;;;18.02;9.82;;;4.90;56.30;;;;;;4941962;28;20046;-67
2022/03/05 10:45:00;;;;;;;15.45;8.77;;;5.00;56.00;;;;;;4942364;28;20043;-67
2022/03/05 10:47:26;;;;;;;15.75;9.35;;;5.10;55.80;;;;;;4939882;28;20081;-67
2022/03/05 10:49:51;;;;;;;13.27;7.72;;;5.20;56.00;;;;;;4941025;28;20036;-66
2022/03/05 10:52:17;;;;;;;12.30;7.60;;;5.20;55.70;;;;;;4940265;28;20070;-67
2022/03/05 10:54:44;;;;;;;13.02;7.63;;;5.30;55.50;;;;;;4942465;28;20058;-68
2022/03/05 10:57:18;;;;;;;11.95;7.13;;;5.30;55.10;;;;;;4938805;28;20042;-67
2022/03/05 10:59:43;;;;;;;11.85;6.45;;;5.40;54.80;;;;;;4941622;28;20142;-68
2022/03/05 11:02:11;;;;;;;14.20;7.13;;;5.50;54.50;;;;;;4936246;28;20570;-67
2022/03/05 11:04:39;;;;;;;13.45;7.40;;;5.60;54.10;;;;;;4941260;28;20144;-67
2022/03/05 11:07:06;;;;;;;10.63;7.18;;;5.60;53.90;;;;;;4939330;28;20123;-67
2022/03/05 11:09:34;;;;;;;12.93;7.93;;;5.70;53.80;;;;;;4939650;28;20035;-67
2022/03/05 11:12:00;;;;;;;14.07;7.43;;;5.70;53.70;;;;;;4935449;28;20569;-67
2022/03/05 11:14:27;;;;;;;12.82;7.65;;;5.80;53.80;;;;;;4942065;28;20039;-67
2022/03/05 11:16:53;;;;;;;12.70;7.20;;;5.80;53.60;;;;;;4942586;28;20052;-67
2022/03/05 11:19:21;;;;;;;15.82;8.52;;;5.80;53.40;;;;;;4940619;28;20423;-68
2022/03/05 11:21:46;;;;;;;14.75;8.70;;;5.90;53.40;;;;;;4940046;28;20383;-67
2022/03/05 11:24:15;;;;;;;17.10;9.50;;;6.00;53.40;;;;;;4940294;28;20459;-67
2022/03/05 11:26:41;;;;;;;17.13;8.55;;;6.10;53.10;;;;;;4936668;28;20040;-67
2022/03/05 11:29:06;;;;;;;14.93;8.95;;;6.10;53.00;;;;;;4941103;28;20507;-68
2022/03/05 11:31:36;;;;;;;12.88;7.88;;;6.10;52.80;;;;;;4940762;28;20035;-68
2022/03/05 11:34:12;;;;;;;12.85;7.65;;;6.20;52.60;;;;;;4938667;28;20122;-68
2022/03/05 11:36:39;;;;;;;14.35;8.50;;;6.20;52.00;;;;;;4936989;28;20114;-68
2022/03/05 11:39:27;;;;;;;13.55;7.97;;;6.30;52.40;;;;;;4935117;28;20039;-67
2022/03/05 11:41:57;;;;;;;10.95;7.38;;;6.30;51.70;;;;;;4938666;28;20412;-67
2022/03/05 11:44:26;;;;;;;14.05;7.97;;;6.30;52.10;;;;;;4938222;28;20038;-68
2022/03/05 11:47:29;;;;;;;13.57;7.95;;;6.40;52.10;;;;;;4921167;28;20043;-67
2022/03/05 11:49:58;;;;;;;14.77;7.90;;;6.40;51.20;;;;;;4936440;28;20047;-67
2022/03/05 11:52:46;;;;;;;12.95;7.90;;;6.50;51.80;;;;;;4941551;28;20062;-68
2022/03/05 11:55:25;;;;;;;15.70;9.43;;;6.50;51.00;;;;;;4937072;28;20032;-68
2022/03/05 11:57:51;;;;;;;16.05;8.77;;;6.60;51.40;;;;;;4938994;28;20031;-68
2022/03/05 12:00:31;;;;;;;17.50;9.90;;;6.60;51.90;;;;;;4937197;28;20083;-68
2022/03/05 12:02:58;;;;;;;13.82;8.98;;;6.70;51.50;;;;;;4939079;28;20031;-67
2022/03/05 12:05:33;;;;;;;14.65;7.80;;;6.70;51.90;;;;;;4938697;28;20055;-68
2022/03/05 12:07:59;;;;;;;13.25;7.78;;;6.80;51.10;;;;;;4939823;28;20039;-68
2022/03/05 12:10:25;;;;;;;13.60;8.25;;;6.80;51.40;;;;;;4934919;28;20047;-68
2022/03/05 12:12:51;;;;;;;12.38;7.90;;;6.90;51.00;;;;;;4942445;28;20529;-67
2022/03/05 12:15:16;;;;;;;13.45;7.43;;;6.90;51.00;;;;;;4939299;28;20040;-67
2022/03/05 12:17:46;;;;;;;11.68;7.35;;;6.90;50.80;;;;;;4937970;28;20040;-68
2022/03/05 12:20:16;;;;;;;15.90;7.53;;;7.00;50.40;;;;;;4937476;28;20094;-67
2022/03/05 12:22:50;;;;;;;30.42;7.90;;;7.00;50.50;;;;;;4936384;28;20055;-67
2022/03/05 12:25:17;;;;;;;11.40;7.07;;;7.10;50.20;;;;;;4938474;28;20498;-68
2022/03/05 12:27:50;;;;;;;11.93;7.40;;;7.00;50.40;;;;;;4938460;28;20035;-68
2022/03/05 12:30:17;;;;;;;11.27;7.82;;;7.10;50.10;;;;;;4937590;28;20036;-67
2022/03/05 12:32:45;;;;;;;11.20;7.38;;;7.10;50.20;;;;;;4936819;28;20059;-68